PATK/TKA METAR and TAF weather

Enter ICAO airport designator
Station Type Date Time Source
PATK METAR 2022/09/26 08:53 UTC NOAA

PATK 260853Z AUTO 00000KT 10SM OVC100 04/03 A2969 RMK AO2 SLP057 T00390028 401280033 58024 TSNO


Station Type Date Time Source
PATK Decoded METAR 2022/09/26 08:53 UTC NOAA

TALKEETNA AIRPORT, AK, United States (PATK) 62-19N 150-06W 109M
Sep 26, 2022 - 04:53 AM EDT / 2022.09.26 0853 UTC
Wind: Calm:0
Visibility: 10 mile(s):0
Sky conditions: overcast
Temperature: 39.0 F (3.9 C)
Dew Point: 37.0 F (2.8 C)
Relative Humidity: 92%
Pressure (altimeter): 29.69 in. Hg (1005 hPa)
Pressure tendency: 0.07 inches (2.4 hPa) lower than three hours ago
ob: PATK 260853Z AUTO 00000KT 10SM OVC100 04/03 A2969 RMK AO2 SLP057 T00390028 401280033 58024 TSNO
cycle: 9

Station Type Date Time Source
PATK TAF 2022/09/26 06:27 UTC NOAA

TAF PATK 260525Z 2606/2706 VRB03KT P6SM VCSH SCT045 BKN070
FM261200 VRB03KT P6SM BKN200
FM262100 VRB04KT P6SM VCSH SCT045 BKN070
FM270300 VRB04KT P6SM -RA BKN030

Example: see airport list